createdAt,value
2023-03-29T00:04:27.715Z,93.80
2023-03-29T00:14:49.637Z,93.80
2023-03-29T00:25:12.493Z,93.60
2023-03-29T00:35:34.156Z,93.70
2023-03-29T00:45:56.226Z,93.50
2023-03-29T00:56:33.330Z,93.20
2023-03-29T01:07:09.822Z,93.20
2023-03-29T01:17:31.824Z,93.10
2023-03-29T01:28:13.475Z,93.20
2023-03-29T01:38:48.420Z,93.10
2023-03-29T01:49:20.512Z,93.10
2023-03-29T01:59:44.563Z,93.20
2023-03-29T02:10:08.827Z,93.30
2023-03-29T02:20:39.130Z,93.20
2023-03-29T02:31:19.042Z,93.10
2023-03-29T02:41:43.498Z,93.20
2023-03-29T02:52:14.702Z,93.30
2023-03-29T03:02:37.839Z,93.00
2023-03-29T03:13:01.218Z,92.90
2023-03-29T03:23:25.231Z,93.00
2023-03-29T03:33:47.048Z,92.70
2023-03-29T03:44:29.351Z,92.90
2023-03-29T03:55:10.746Z,92.90
2023-03-29T04:05:50.720Z,92.80
2023-03-29T04:16:14.473Z,92.70
2023-03-29T04:26:36.463Z,92.70
2023-03-29T04:37:10.499Z,92.30
2023-03-29T04:47:32.703Z,92.60
2023-03-29T04:58:05.465Z,92.40
2023-03-29T05:08:29.323Z,92.50
2023-03-29T05:19:03.792Z,92.20
2023-03-29T05:29:27.579Z,92.40
2023-03-29T05:40:06.073Z,92.30
2023-03-29T05:50:31.908Z,92.30
2023-03-29T06:00:54.672Z,92.50
2023-03-29T06:11:51.314Z,92.40
2023-03-29T06:22:34.131Z,92.40
2023-03-29T06:32:55.630Z,92.30
2023-03-29T06:43:35.932Z,92.00
2023-03-29T06:54:02.198Z,92.20
2023-03-29T07:04:24.703Z,91.60
2023-03-29T07:15:01.881Z,91.70
2023-03-29T07:25:43.150Z,91.90
2023-03-29T07:36:06.955Z,92.00
2023-03-29T07:46:29.828Z,91.00
2023-03-29T07:56:51.960Z,91.40
2023-03-29T08:07:27.815Z,91.80
2023-03-29T08:17:48.882Z,91.60
2023-03-29T08:28:10.650Z,91.80
2023-03-29T08:38:39.154Z,92.00
2023-03-29T08:49:04.460Z,92.10
2023-03-29T08:59:31.243Z,91.70
2023-03-29T09:09:54.344Z,91.60
2023-03-29T14:18:59.824Z,88.20
2023-03-29T14:29:24.285Z,88.30
2023-03-29T14:39:46.756Z,88.40
2023-03-29T14:50:19.859Z,89.30
2023-03-29T15:00:44.603Z,89.40
2023-03-29T15:11:26.582Z,89.00
2023-03-29T15:21:50.581Z,87.10
2023-03-29T15:32:37.213Z,88.00
2023-03-29T15:42:58.904Z,88.30
2023-03-29T15:53:23.625Z,86.50
2023-03-29T16:03:47.631Z,86.60
2023-03-29T16:14:25.435Z,87.50
2023-03-29T16:24:46.985Z,87.70
2023-03-29T16:35:28.938Z,86.60
2023-03-29T16:45:50.022Z,87.10
2023-03-29T16:56:11.002Z,86.20
2023-03-29T17:06:33.009Z,86.60
2023-03-29T17:16:54.538Z,86.90
2023-03-29T17:27:16.024Z,87.00
2023-03-29T17:37:37.355Z,86.50
2023-03-29T17:47:58.847Z,86.90
2023-03-29T17:58:20.515Z,85.80
2023-03-29T18:08:41.769Z,86.30
2023-03-29T18:19:03.240Z,85.70
2023-03-29T18:29:24.543Z,86.30
2023-03-29T18:39:48.013Z,86.00
2023-03-29T18:50:10.244Z,85.60
2023-03-29T19:00:31.500Z,85.20
2023-03-29T19:10:56.985Z,84.50
2023-03-29T19:21:18.075Z,85.60
2023-03-29T19:31:39.666Z,84.80
2023-03-29T19:42:01.465Z,85.00
2023-03-29T19:52:24.063Z,85.00
2023-03-29T20:02:45.190Z,83.10
2023-03-29T20:13:07.248Z,82.60
2023-03-29T20:23:28.487Z,82.80
2023-03-29T20:33:49.865Z,82.90
2023-03-29T20:44:12.627Z,83.90
2023-03-29T20:54:37.092Z,83.30
2023-03-29T21:05:00.322Z,82.60
2023-03-29T21:15:21.773Z,82.90
2023-03-29T21:25:44.007Z,83.10
2023-03-29T21:36:05.747Z,82.40
2023-03-29T21:46:27.580Z,82.70
2023-03-29T21:56:48.702Z,83.10
2023-03-29T22:07:10.643Z,83.50
2023-03-29T22:17:32.854Z,84.50
2023-03-29T22:27:54.299Z,85.40
2023-03-29T22:38:15.865Z,84.50
2023-03-29T22:48:37.455Z,85.30
2023-03-29T22:58:59.070Z,86.10
2023-03-29T23:09:21.020Z,86.90
2023-03-29T23:19:42.512Z,87.70
2023-03-29T23:30:04.332Z,87.80
2023-03-29T23:40:26.152Z,87.40
2023-03-29T23:50:48.084Z,87.40
